createdAt,value
2018-11-21T00:01:08.303Z,3.00
2018-11-21T00:04:03.291Z,3.00
2018-11-21T00:06:57.764Z,2.90
2018-11-21T00:09:52.055Z,2.90
2018-11-21T00:12:50.110Z,2.80
2018-11-21T00:15:44.619Z,2.80
2018-11-21T00:18:38.911Z,2.70
2018-11-21T00:21:33.074Z,2.80
2018-11-21T00:24:27.630Z,2.90
2018-11-21T00:27:22.007Z,3.00
2018-11-21T00:30:16.892Z,2.90
2018-11-21T00:33:11.299Z,2.90
2018-11-21T00:36:05.858Z,2.80
2018-11-21T00:38:59.939Z,2.90
2018-11-21T00:41:54.777Z,2.90
2018-11-21T00:44:48.975Z,2.90
2018-11-21T00:47:43.292Z,2.90
2018-11-21T00:50:41.145Z,2.70
2018-11-21T00:53:35.441Z,2.70
2018-11-21T00:56:29.736Z,2.60
2018-11-21T00:59:24.170Z,2.80
2018-11-21T01:02:18.327Z,2.70
2018-11-21T01:05:13.018Z,2.70
2018-11-21T01:08:07.456Z,2.70
2018-11-21T01:11:01.904Z,2.80
2018-11-21T01:13:56.267Z,2.70
2018-11-21T01:16:51.677Z,2.60
2018-11-21T01:19:46.144Z,2.70
2018-11-21T01:22:40.743Z,2.70
2018-11-21T01:25:34.889Z,2.70
2018-11-21T01:28:29.547Z,2.70
2018-11-21T01:31:23.733Z,2.70
2018-11-21T01:34:19.001Z,2.80
2018-11-21T01:37:13.371Z,2.80
2018-11-21T01:40:09.081Z,2.70
2018-11-21T01:43:03.537Z,2.70
2018-11-21T01:45:57.572Z,2.60
2018-11-21T01:48:51.631Z,2.70
2018-11-21T01:51:46.466Z,2.70
2018-11-21T01:54:40.719Z,2.70
2018-11-21T01:57:34.902Z,2.80
2018-11-21T02:00:29.480Z,2.70
2018-11-21T02:03:23.785Z,2.70
2018-11-21T02:06:18.075Z,2.80
2018-11-21T02:09:12.853Z,2.80
2018-11-21T02:12:07.151Z,2.80
2018-11-21T02:15:01.498Z,2.70
2018-11-21T02:17:55.767Z,2.60
2018-11-21T02:20:52.815Z,2.70
2018-11-21T02:23:47.298Z,2.60
2018-11-21T02:26:41.741Z,2.60
2018-11-21T02:29:36.091Z,2.60
2018-11-21T02:32:30.624Z,2.70
2018-11-21T02:35:25.051Z,2.80
2018-11-21T02:38:19.285Z,2.80
2018-11-21T02:41:13.571Z,2.80
2018-11-21T02:44:08.169Z,2.80
2018-11-21T02:47:02.587Z,2.80
2018-11-21T02:49:57.277Z,2.70
2018-11-21T02:52:51.587Z,2.70
2018-11-21T02:55:46.284Z,2.70
2018-11-21T02:58:40.339Z,2.60
2018-11-21T03:01:34.542Z,2.60
2018-11-21T03:04:28.910Z,2.70
2018-11-21T03:07:23.192Z,2.70
2018-11-21T03:10:17.789Z,2.70
2018-11-21T03:13:12.488Z,2.60
2018-11-21T03:16:06.486Z,2.60
2018-11-21T03:19:01.033Z,2.60
2018-11-21T03:21:55.568Z,2.70
2018-11-21T03:24:49.954Z,2.80
2018-11-21T03:27:44.383Z,2.80
2018-11-21T03:30:39.102Z,2.80
2018-11-21T03:33:33.084Z,2.70
2018-11-21T03:36:27.468Z,2.60
2018-11-21T03:39:23.007Z,2.70
2018-11-21T03:42:19.806Z,2.70
2018-11-21T03:45:14.244Z,2.60
2018-11-21T03:48:08.305Z,2.60
2018-11-21T03:51:02.767Z,2.70
2018-11-21T03:53:57.496Z,2.60
2018-11-21T03:56:51.671Z,2.60
2018-11-21T03:59:46.252Z,2.60
2018-11-21T04:02:40.702Z,2.60
2018-11-21T04:05:35.262Z,2.60
2018-11-21T04:08:29.740Z,2.60
2018-11-21T04:11:24.195Z,2.70
2018-11-21T04:14:18.162Z,2.70
2018-11-21T04:17:12.237Z,2.60
2018-11-21T04:20:07.397Z,2.60
2018-11-21T04:23:01.700Z,2.60
2018-11-21T04:25:55.832Z,2.70
2018-11-21T04:28:50.609Z,2.80
2018-11-21T04:31:45.085Z,2.70
2018-11-21T04:34:39.457Z,2.70
2018-11-21T04:37:33.773Z,2.70
2018-11-21T04:40:28.013Z,2.80
2018-11-21T04:43:21.921Z,2.70
2018-11-21T04:46:17.488Z,2.60
2018-11-21T04:49:11.534Z,2.60
2018-11-21T04:52:06.388Z,2.70
2018-11-21T04:55:00.339Z,2.70
2018-11-21T04:57:54.905Z,2.60
2018-11-21T05:00:48.905Z,2.60
2018-11-21T05:03:43.227Z,2.60
2018-11-21T05:06:37.524Z,2.70
2018-11-21T05:09:32.046Z,2.80
2018-11-21T05:12:26.620Z,2.90
2018-11-21T05:15:20.653Z,2.90
2018-11-21T05:18:14.884Z,2.80
2018-11-21T05:21:09.652Z,2.80
2018-11-21T05:24:04.079Z,2.70
2018-11-21T05:26:58.601Z,2.70
2018-11-21T05:29:53.014Z,2.80
2018-11-21T05:32:47.316Z,2.90
2018-11-21T05:35:41.810Z,2.80
2018-11-21T05:38:36.561Z,2.80
2018-11-21T05:41:31.008Z,2.70
2018-11-21T05:44:31.279Z,2.70
2018-11-21T05:47:22.015Z,2.80
2018-11-21T05:50:16.687Z,2.80
2018-11-21T05:53:12.085Z,2.90
2018-11-21T05:56:06.806Z,2.80
2018-11-21T05:59:01.078Z,2.80
2018-11-21T06:01:55.117Z,2.70
2018-11-21T06:04:49.567Z,2.60
2018-11-21T06:07:43.631Z,2.60
2018-11-21T06:10:39.078Z,2.70
2018-11-21T06:13:33.790Z,2.70
2018-11-21T06:16:27.663Z,2.70
2018-11-21T06:19:22.257Z,2.70
2018-11-21T06:22:16.614Z,2.60
2018-11-21T06:25:12.108Z,2.70
2018-11-21T06:28:06.380Z,2.70
2018-11-21T06:31:00.461Z,2.70
2018-11-21T06:33:55.160Z,2.60
2018-11-21T06:36:49.310Z,2.60
2018-11-21T06:39:43.391Z,2.60
2018-11-21T06:42:37.778Z,2.70
2018-11-21T06:45:31.802Z,2.70
2018-11-21T06:48:26.245Z,2.60
2018-11-21T06:51:20.839Z,2.60
2018-11-21T06:54:15.514Z,2.70
2018-11-21T06:57:09.633Z,2.70
2018-11-21T07:00:04.103Z,2.60
2018-11-21T07:02:58.776Z,2.70
2018-11-21T07:05:53.231Z,2.70
2018-11-21T07:08:47.524Z,2.60
2018-11-21T07:11:42.533Z,2.60
2018-11-21T07:14:36.937Z,2.50
2018-11-21T07:17:31.419Z,2.50
2018-11-21T07:20:25.964Z,2.60
2018-11-21T07:23:20.461Z,2.50
2018-11-21T07:26:14.785Z,2.50
2018-11-21T07:29:09.233Z,2.50
2018-11-21T07:32:03.337Z,2.60
2018-11-21T07:34:57.719Z,2.60
2018-11-21T07:37:52.087Z,2.50
2018-11-21T07:40:46.747Z,2.60
2018-11-21T07:43:40.681Z,2.70
2018-11-21T07:46:34.808Z,2.70
2018-11-21T07:49:29.185Z,2.80
2018-11-21T07:52:23.644Z,2.80
2018-11-21T07:55:17.792Z,2.80
2018-11-21T07:58:14.416Z,2.80
2018-11-21T08:01:28.244Z,2.80
2018-11-21T08:04:27.689Z,2.80
2018-11-21T08:07:32.757Z,2.70
2018-11-21T08:10:45.806Z,2.70
2018-11-21T08:13:57.388Z,2.80
2018-11-21T08:17:09.176Z,2.70
2018-11-21T08:20:21.653Z,2.70
2018-11-21T08:23:33.769Z,3.20
2018-11-21T08:26:43.100Z,3.90
2018-11-21T08:29:37.386Z,4.00
2018-11-21T08:32:31.476Z,3.70
2018-11-21T08:35:25.835Z,3.40
2018-11-21T08:38:20.553Z,3.10
2018-11-21T08:41:14.656Z,3.00
2018-11-21T08:44:09.027Z,2.80
2018-11-21T08:47:03.321Z,2.80
2018-11-21T08:49:58.132Z,2.80
2018-11-21T08:52:52.647Z,2.30
2018-11-21T08:55:46.749Z,2.80
2018-11-21T08:58:41.458Z,2.90
2018-11-21T09:01:35.591Z,2.80
2018-11-21T09:04:30.600Z,2.80
2018-11-21T09:07:25.324Z,2.80
2018-11-21T09:10:19.783Z,2.80
2018-11-21T09:13:13.643Z,2.90
2018-11-21T09:16:07.787Z,2.80
2018-11-21T09:19:02.281Z,2.90
2018-11-21T09:21:56.443Z,3.00
2018-11-21T09:24:50.637Z,3.00
2018-11-21T09:27:44.815Z,3.10
2018-11-21T09:30:39.741Z,3.10
2018-11-21T09:33:34.860Z,3.10
2018-11-21T09:36:29.276Z,3.10
2018-11-21T09:39:23.546Z,3.10
2018-11-21T09:42:17.960Z,3.40
2018-11-21T09:45:13.776Z,3.30
2018-11-21T09:48:08.186Z,3.20
2018-11-21T09:51:02.407Z,3.20
2018-11-21T09:53:58.798Z,3.20
2018-11-21T09:56:52.825Z,3.10
2018-11-21T09:59:47.242Z,3.20
2018-11-21T10:03:11.053Z,3.20
2018-11-21T10:06:23.973Z,3.30
2018-11-21T10:09:23.072Z,3.20
2018-11-21T10:12:17.647Z,3.20
2018-11-21T10:15:12.023Z,3.20
2018-11-21T10:18:06.702Z,3.20
2018-11-21T10:21:01.542Z,3.20
2018-11-21T10:23:56.676Z,3.30
2018-11-21T10:26:50.840Z,3.60
2018-11-21T10:29:45.015Z,4.10
2018-11-21T10:32:39.337Z,3.80
2018-11-21T10:35:35.958Z,3.70
2018-11-21T10:38:28.642Z,3.60
2018-11-21T10:41:23.128Z,3.60
2018-11-21T10:44:17.937Z,3.60
2018-11-21T10:47:12.368Z,3.40
2018-11-21T10:50:08.206Z,3.40
2018-11-21T10:53:02.638Z,3.50
2018-11-21T10:55:56.874Z,3.50
2018-11-21T10:58:51.269Z,3.60
2018-11-21T11:02:03.441Z,3.80
2018-11-21T11:05:06.357Z,4.30
2018-11-21T11:08:32.292Z,4.60
2018-11-21T11:11:44.849Z,4.50
2018-11-21T11:14:57.721Z,4.20
2018-11-21T11:18:15.960Z,3.90
2018-11-21T11:21:33.836Z,3.80
2018-11-21T11:24:56.726Z,3.70
2018-11-21T11:28:52.717Z,3.60
2018-11-21T11:32:07.027Z,3.60
2018-11-21T11:35:18.133Z,3.60
2018-11-21T11:38:34.351Z,3.50
2018-11-21T11:41:49.472Z,3.40
2018-11-21T11:45:08.797Z,3.40
2018-11-21T11:48:31.518Z,3.40
2018-11-21T11:51:46.705Z,3.50
2018-11-21T11:55:01.285Z,3.40
2018-11-21T11:58:16.400Z,3.50
2018-11-21T12:01:23.552Z,3.50
2018-11-21T12:04:31.687Z,3.50
2018-11-21T12:07:46.569Z,3.40
2018-11-21T12:11:01.400Z,3.50
2018-11-21T12:14:36.551Z,3.60
2018-11-21T12:17:51.657Z,3.50
2018-11-21T12:21:06.227Z,3.40
2018-11-21T12:24:21.516Z,3.60
2018-11-21T12:27:42.103Z,3.50
2018-11-21T12:30:58.731Z,3.50
2018-11-21T12:34:13.338Z,3.40
2018-11-21T12:37:38.756Z,3.50
2018-11-21T12:40:54.806Z,3.60
2018-11-21T12:44:03.072Z,3.60
2018-11-21T12:47:22.415Z,3.40
2018-11-21T12:50:41.392Z,3.50
2018-11-21T12:53:53.894Z,3.50
2018-11-21T12:57:14.712Z,3.50
2018-11-21T13:00:22.105Z,3.50
2018-11-21T13:03:29.490Z,3.50
2018-11-21T13:06:45.064Z,3.60
2018-11-21T13:10:04.728Z,3.50
2018-11-21T13:13:19.325Z,3.50
2018-11-21T13:16:41.947Z,3.50
2018-11-21T13:19:55.375Z,3.50
2018-11-21T13:23:17.311Z,3.40
2018-11-21T13:26:31.966Z,3.40
2018-11-21T13:30:03.745Z,3.50
2018-11-21T13:33:19.220Z,3.30
2018-11-21T13:36:34.517Z,3.20
2018-11-21T13:39:59.516Z,3.10
2018-11-21T13:43:31.043Z,3.10
2018-11-21T13:46:36.012Z,2.90
2018-11-21T13:49:52.103Z,2.90
2018-11-21T13:53:20.495Z,2.90
2018-11-21T13:56:18.053Z,3.00
2018-11-21T13:59:15.820Z,3.10
2018-11-21T14:02:13.440Z,3.10
2018-11-21T14:05:13.174Z,3.00
2018-11-21T14:08:11.374Z,3.00
2018-11-21T14:11:09.544Z,3.00
2018-11-21T14:14:08.376Z,3.00
2018-11-21T14:17:06.044Z,3.00
2018-11-21T14:20:03.671Z,3.00
2018-11-21T14:23:01.434Z,3.00
2018-11-21T14:25:59.026Z,3.10
2018-11-21T14:28:58.174Z,3.00
2018-11-21T14:31:55.924Z,2.90
2018-11-21T14:34:54.438Z,2.90
2018-11-21T14:37:52.380Z,2.90
2018-11-21T14:40:50.474Z,3.00
2018-11-21T14:43:48.112Z,3.00
2018-11-21T14:46:49.406Z,2.80
2018-11-21T14:49:51.230Z,2.80
2018-11-21T14:52:48.815Z,2.90
2018-11-21T14:55:46.652Z,2.90
2018-11-21T14:58:44.144Z,2.80
2018-11-21T15:01:41.650Z,2.80
2018-11-21T15:04:39.466Z,2.80
2018-11-21T15:07:37.687Z,2.70
2018-11-21T15:10:35.090Z,2.80
2018-11-21T15:13:32.727Z,2.80
2018-11-21T15:16:32.586Z,2.80
2018-11-21T15:19:30.572Z,2.80
2018-11-21T15:22:28.548Z,3.00
2018-11-21T15:25:26.221Z,3.00
2018-11-21T15:28:24.432Z,3.00
2018-11-21T15:31:22.487Z,3.10
2018-11-21T15:34:20.303Z,3.00
2018-11-21T15:37:17.488Z,3.00
2018-11-21T15:40:18.320Z,2.90
2018-11-21T15:43:16.077Z,2.90
2018-11-21T15:46:14.013Z,2.80
2018-11-21T15:49:11.715Z,2.80
2018-11-21T15:52:10.034Z,2.80
2018-11-21T15:55:09.376Z,2.80
2018-11-21T15:58:07.309Z,2.80
2018-11-21T16:01:05.318Z,2.90
2018-11-21T16:04:21.975Z,2.90
2018-11-21T16:07:19.817Z,2.90
2018-11-21T16:10:19.897Z,2.90
2018-11-21T16:13:17.731Z,2.90
2018-11-21T16:16:16.224Z,2.90
2018-11-21T16:19:17.444Z,2.90
2018-11-21T16:22:15.493Z,2.90
2018-11-21T16:25:15.329Z,2.90
2018-11-21T16:28:13.257Z,2.90
2018-11-21T16:31:10.891Z,3.00
2018-11-21T16:34:09.120Z,2.90
2018-11-21T16:37:18.434Z,2.90
2018-11-21T16:40:22.524Z,2.90
2018-11-21T16:43:20.638Z,2.80
2018-11-21T16:46:19.446Z,2.90
2018-11-21T16:49:17.112Z,2.90
2018-11-21T16:52:15.111Z,3.00
2018-11-21T16:55:17.872Z,2.90
2018-11-21T16:58:15.642Z,2.90
2018-11-21T17:01:14.429Z,2.90
2018-11-21T17:04:12.506Z,2.90
2018-11-21T17:07:10.202Z,2.90
2018-11-21T17:10:11.655Z,2.90
2018-11-21T17:13:09.829Z,3.00
2018-11-21T17:16:08.799Z,3.00
2018-11-21T17:19:06.676Z,2.90
2018-11-21T17:22:04.513Z,3.00
2018-11-21T17:25:02.952Z,3.00
2018-11-21T17:28:01.011Z,3.00
2018-11-21T17:30:58.878Z,2.90
2018-11-21T17:33:56.596Z,2.80
2018-11-21T17:36:54.285Z,3.00
2018-11-21T17:39:52.340Z,3.00
2018-11-21T17:42:49.984Z,3.00
2018-11-21T17:45:47.481Z,2.90
2018-11-21T17:48:45.767Z,3.00
2018-11-21T17:51:43.246Z,3.00
2018-11-21T17:54:41.550Z,2.90
2018-11-21T17:57:39.286Z,2.80
2018-11-21T18:00:36.714Z,2.80
2018-11-21T18:03:36.179Z,3.00
2018-11-21T18:06:34.023Z,3.00
2018-11-21T18:09:31.913Z,3.00
2018-11-21T18:12:29.736Z,2.90
2018-11-21T18:15:27.820Z,2.90
2018-11-21T18:18:26.216Z,2.90
2018-11-21T18:21:24.173Z,3.00
2018-11-21T18:24:21.867Z,2.90
2018-11-21T18:27:20.026Z,2.90
2018-11-21T18:30:19.842Z,2.90
2018-11-21T18:33:17.513Z,2.90
2018-11-21T18:36:15.125Z,3.00
2018-11-21T18:39:14.355Z,3.00
2018-11-21T18:42:11.918Z,3.00
2018-11-21T18:45:14.309Z,3.00
2018-11-21T18:48:12.172Z,3.00
2018-11-21T18:51:09.873Z,3.00
2018-11-21T18:54:08.029Z,2.90
2018-11-21T18:57:37.597Z,3.10
2018-11-21T19:00:37.954Z,3.10
2018-11-21T19:03:35.510Z,2.90
2018-11-21T19:06:33.326Z,2.90
2018-11-21T19:09:32.523Z,2.80
2018-11-21T19:12:30.353Z,2.90
2018-11-21T19:15:28.250Z,2.90
2018-11-21T19:18:25.920Z,3.00
2018-11-21T19:21:23.952Z,2.90
2018-11-21T19:24:21.505Z,2.90
2018-11-21T19:27:19.211Z,2.90
2018-11-21T19:30:19.189Z,2.90
2018-11-21T19:33:17.060Z,2.80
2018-11-21T19:36:17.055Z,2.80
2018-11-21T19:39:15.225Z,2.80
2018-11-21T19:42:13.232Z,2.70
2018-11-21T19:45:14.174Z,2.90
2018-11-21T19:48:12.020Z,2.80
2018-11-21T19:51:10.761Z,2.80
2018-11-21T19:54:10.927Z,2.90
2018-11-21T19:57:09.892Z,2.80
2018-11-21T20:00:11.275Z,2.80
2018-11-21T20:03:09.687Z,2.80
2018-11-21T20:06:07.994Z,2.80
2018-11-21T20:09:08.303Z,2.80
2018-11-21T20:12:08.842Z,3.00
2018-11-21T20:15:07.307Z,3.10
2018-11-21T20:18:07.554Z,3.10
2018-11-21T20:21:05.136Z,3.00
2018-11-21T20:24:02.999Z,2.90
2018-11-21T20:27:00.833Z,3.00
2018-11-21T20:29:59.106Z,3.00
2018-11-21T20:32:56.790Z,3.00
2018-11-21T20:35:54.548Z,3.10
2018-11-21T20:38:52.843Z,3.10
2018-11-21T20:41:50.723Z,2.90
2018-11-21T20:44:48.580Z,2.90
2018-11-21T20:47:47.140Z,3.00
2018-11-21T20:50:44.682Z,3.10
2018-11-21T20:53:42.604Z,3.10
2018-11-21T20:56:40.345Z,3.00
2018-11-21T20:59:39.547Z,2.90
2018-11-21T21:02:37.270Z,2.90
2018-11-21T21:05:35.284Z,3.00
2018-11-21T21:08:33.481Z,3.10
2018-11-21T21:11:31.571Z,4.10
2018-11-21T21:14:29.443Z,2.90
2018-11-21T21:17:27.035Z,2.90
2018-11-21T21:20:26.412Z,2.90
2018-11-21T21:23:24.570Z,3.00
2018-11-21T21:26:22.335Z,2.80
2018-11-21T21:29:20.104Z,2.90
2018-11-21T21:32:17.617Z,2.90
2018-11-21T21:35:16.362Z,3.00
2018-11-21T21:38:14.584Z,2.90
2018-11-21T21:41:12.453Z,2.90
2018-11-21T21:44:10.894Z,2.90
2018-11-21T21:47:08.953Z,2.90
2018-11-21T21:50:08.676Z,2.90
2018-11-21T21:53:10.841Z,2.80
2018-11-21T21:56:08.546Z,2.90
2018-11-21T21:59:06.748Z,2.90
2018-11-21T22:02:04.426Z,2.90
2018-11-21T22:05:02.286Z,2.90
2018-11-21T22:07:59.728Z,2.90
2018-11-21T22:10:58.279Z,2.90
2018-11-21T22:13:56.307Z,2.90
2018-11-21T22:16:54.118Z,2.80
2018-11-21T22:19:51.884Z,2.70
2018-11-21T22:22:49.214Z,2.70
2018-11-21T22:25:46.772Z,2.80
2018-11-21T22:28:44.661Z,3.00
2018-11-21T22:31:42.543Z,2.90
2018-11-21T22:34:40.882Z,2.80
2018-11-21T22:37:38.284Z,2.80
2018-11-21T22:40:36.361Z,2.80
2018-11-21T22:43:33.916Z,2.70
2018-11-21T22:46:32.483Z,2.60
2018-11-21T22:49:30.370Z,2.70
2018-11-21T22:52:30.462Z,2.90
2018-11-21T22:55:28.429Z,2.90
2018-11-21T22:58:25.966Z,2.80
2018-11-21T23:01:29.043Z,2.70
2018-11-21T23:04:26.590Z,2.70
2018-11-21T23:07:24.238Z,2.70
2018-11-21T23:10:27.769Z,2.70
2018-11-21T23:13:25.117Z,2.80
2018-11-21T23:16:22.421Z,2.80
2018-11-21T23:19:19.792Z,2.80
2018-11-21T23:22:17.957Z,2.80
2018-11-21T23:25:16.666Z,2.80
2018-11-21T23:28:15.763Z,2.80
2018-11-21T23:31:13.823Z,2.90
2018-11-21T23:34:11.529Z,2.80
2018-11-21T23:37:09.542Z,2.80
2018-11-21T23:40:09.463Z,2.80
2018-11-21T23:43:07.097Z,2.80
2018-11-21T23:46:05.018Z,2.80
2018-11-21T23:49:02.775Z,2.80
2018-11-21T23:52:00.924Z,2.90
2018-11-21T23:54:58.854Z,2.80
2018-11-21T23:57:56.246Z,2.80
